ROMMA est une association bénévole à but non lucratif. Votre soutien est indispensable : ADHERER à ROMMA ou FAIRE un DON

La Beaume - (05, Hautes Alpes)

Buëch (820 m)   Longitude: 5° 40' 9'' E   Latitude: 44° 32' 3'' N Station partenaire n°75
 

Détail journalier du     <<     >>

Température Precipitation Humidité Pression Vent Dir Rafale Dir. rafale Ensol.
Heure (°C) (mm) (%) (hPa) (km/h) (km/h) (min)
01:00 11.407510181N5N0
02:00 10.1080101803N0
03:00 9.60821018000
04:00 9.20841017000
05:00 8.508510171O5NNO0
06:00 8.7088101705SO0
07:00 9.608510171OSO5O0
08:00 9.4088101603NO0
09:00 9.9087101606ESE0
10:00 10.7085101702SE0
11:00 10.90.28810182ESE10SSO0
12:00 13.607610171S6NO0
13:00 14.606810171SE6SO0
14:00 14.7072101605NE0
15:00 12.10.485101710N31ONO0
16:00 13.1077101714ONO32ONO0
17:00 14.606810179O23O60
18:00 14.1067101711O24NO30
19:00 13.6067101712O29O0
20:00 12.107310187ONO16ONO0
21:00 11.807210186NO16NNO0
22:00 11.407110188NO16ONO0
23:00 11.706410188ONO21O0
minuit 11.606310188ONO16NO0

Graphique du 09-10-2019

 

Serveur OMMA